createdAt,value
2023-06-11T00:00:51.840Z,100562.38
2023-06-11T00:01:55.326Z,100557.56
2023-06-11T00:02:59.366Z,100558.38
2023-06-11T00:04:03.366Z,100558.97
2023-06-11T00:05:10.262Z,100560.88
2023-06-11T00:06:14.180Z,100561.09
2023-06-11T00:07:18.062Z,100559.66
2023-06-11T00:08:21.921Z,100555.03
2023-06-11T00:09:25.709Z,100557.75
2023-06-11T00:10:30.070Z,100550.44
2023-06-11T00:11:33.124Z,100547.50
2023-06-11T00:12:36.584Z,100545.38
2023-06-11T00:13:40.281Z,100549.59
2023-06-11T00:14:44.201Z,100542.50
2023-06-11T00:15:47.607Z,100540.81
2023-06-11T00:16:50.973Z,100548.38
2023-06-11T00:17:54.422Z,100546.09
2023-06-11T00:18:57.517Z,100547.81
2023-06-11T00:20:05.292Z,100539.72
2023-06-11T00:21:10.279Z,100537.63
2023-06-11T00:22:13.947Z,100532.88
2023-06-11T00:23:16.776Z,100535.84
2023-06-11T00:24:20.295Z,100534.38
2023-06-11T00:25:23.769Z,100528.09
2023-06-11T00:26:27.969Z,100531.66
2023-06-11T00:27:31.541Z,100518.72
2023-06-11T00:28:35.190Z,100529.38
2023-06-11T00:29:38.371Z,100533.56
2023-06-11T00:30:41.732Z,100532.56
2023-06-11T00:31:45.009Z,100530.53
2023-06-11T00:32:48.212Z,100524.97
2023-06-11T00:33:51.679Z,100528.78
2023-06-11T00:34:55.007Z,100528.38
2023-06-11T00:35:58.290Z,100522.09
2023-06-11T00:37:01.392Z,100527.53
2023-06-11T00:38:05.130Z,100518.97
2023-06-11T00:39:08.876Z,100520.44
2023-06-11T00:40:13.538Z,100518.75
2023-06-11T00:41:17.278Z,100512.88
2023-06-11T00:42:21.100Z,100510.78
2023-06-11T00:43:25.825Z,100515.59
2023-06-11T00:44:31.571Z,100514.38
2023-06-11T00:45:36.857Z,100509.81
2023-06-11T00:46:43.542Z,100516.72
2023-06-11T00:47:46.993Z,100513.81
2023-06-11T00:48:51.689Z,100507.31
2023-06-11T00:49:55.799Z,100507.53
2023-06-11T00:50:58.974Z,100517.16
2023-06-11T00:52:02.580Z,100508.38
2023-06-11T00:53:06.108Z,100508.84
2023-06-11T00:54:23.467Z,100511.78
2023-06-11T00:55:27.383Z,100503.50
2023-06-11T00:56:31.301Z,100510.59
2023-06-11T00:57:37.158Z,100512.69
2023-06-11T00:58:41.917Z,100507.69
2023-06-11T00:59:50.075Z,100509.34
2023-06-11T01:00:57.380Z,100514.75
2023-06-11T01:02:18.864Z,100507.91
2023-06-11T01:03:23.734Z,100509.72
2023-06-11T01:04:27.391Z,100506.41
2023-06-11T01:05:33.656Z,100501.81
2023-06-11T01:06:38.172Z,100508.25
2023-06-11T01:07:52.566Z,100507.19
2023-06-11T01:09:02.756Z,100509.69
2023-06-11T01:10:11.022Z,100510.94
2023-06-11T01:11:24.990Z,100510.09
2023-06-11T01:12:34.020Z,100507.16
2023-06-11T01:13:38.458Z,100515.31
2023-06-11T01:14:41.816Z,100505.28
2023-06-11T01:15:44.803Z,100506.56
2023-06-11T01:17:10.624Z,100513.88
2023-06-11T01:18:20.760Z,100504.91
2023-06-11T01:20:05.391Z,100501.13
2023-06-11T01:21:19.480Z,100509.88
2023-06-11T01:22:52.426Z,100507.16
2023-06-11T01:24:24.417Z,100498.44
2023-06-11T01:25:39.591Z,100505.50
2023-06-11T01:27:06.940Z,100503.41
2023-06-11T01:28:11.765Z,100505.69
2023-06-11T01:29:15.429Z,100500.03
2023-06-11T01:30:22.228Z,100500.25
2023-06-11T01:31:28.236Z,100499.22
2023-06-11T01:32:32.368Z,100504.66
2023-06-11T01:33:38.351Z,100497.53
2023-06-11T01:34:44.754Z,100498.38
2023-06-11T01:35:59.551Z,100501.72
2023-06-11T01:37:07.656Z,100504.22
2023-06-11T01:38:11.587Z,100502.56
2023-06-11T01:39:26.827Z,100493.56
2023-06-11T01:40:36.304Z,100496.94
2023-06-11T01:41:40.299Z,100495.91
2023-06-11T01:42:45.057Z,100495.25
2023-06-11T01:43:48.299Z,100483.78
2023-06-11T01:44:51.615Z,100493.38
2023-06-11T01:45:57.830Z,100495.06
2023-06-11T01:47:01.538Z,100490.03
2023-06-11T01:48:04.940Z,100489.66
2023-06-11T01:49:09.129Z,100482.34
2023-06-11T01:50:14.316Z,100488.66
2023-06-11T01:51:17.879Z,100486.78
2023-06-11T01:52:21.762Z,100490.13
2023-06-11T01:53:25.179Z,100487.22
2023-06-11T01:54:29.033Z,100482.63
2023-06-11T01:55:32.554Z,100489.50
2023-06-11T01:56:36.051Z,100484.50
2023-06-11T01:57:39.379Z,100489.50
2023-06-11T01:58:47.095Z,100483.03
2023-06-11T01:59:51.050Z,100487.19
2023-06-11T02:00:54.977Z,100486.13
2023-06-11T02:01:58.419Z,100489.09
2023-06-11T02:03:04.082Z,100483.03
2023-06-11T02:04:07.312Z,100489.72
2023-06-11T02:05:11.133Z,100489.94
2023-06-11T02:06:14.917Z,100474.47
2023-06-11T02:07:18.402Z,100485.09
2023-06-11T02:08:22.610Z,100483.03
2023-06-11T02:09:26.056Z,100480.75
2023-06-11T02:10:29.176Z,100480.94
2023-06-11T02:11:33.048Z,100480.13
2023-06-11T02:12:37.122Z,100481.38
2023-06-11T02:13:40.369Z,100476.59
2023-06-11T02:14:44.070Z,100474.31
2023-06-11T02:15:47.637Z,100478.06
2023-06-11T02:16:52.190Z,100476.38
2023-06-11T02:17:56.077Z,100482.44
2023-06-11T02:18:59.776Z,100478.06
2023-06-11T02:20:07.548Z,100475.34
2023-06-11T02:21:11.059Z,100478.91
2023-06-11T02:22:14.365Z,100479.09
2023-06-11T02:23:17.807Z,100479.72
2023-06-11T02:24:22.072Z,100477.22
2023-06-11T02:25:25.651Z,100484.97
2023-06-11T02:26:31.067Z,100483.28
2023-06-11T02:27:34.720Z,100484.13
2023-06-11T02:28:39.812Z,100493.50
2023-06-11T02:29:43.801Z,100487.25
2023-06-11T02:30:47.502Z,100482.66
2023-06-11T02:31:51.622Z,100486.22
2023-06-11T02:32:55.186Z,100479.75
2023-06-11T02:33:58.597Z,100484.97
2023-06-11T02:35:01.973Z,100485.56
2023-06-11T02:36:05.971Z,100487.25
2023-06-11T02:37:10.574Z,100491.00
2023-06-11T02:38:13.855Z,100485.16
2023-06-11T02:39:16.970Z,100481.41
2023-06-11T02:40:20.080Z,100487.66
2023-06-11T02:41:23.409Z,100480.97
2023-06-11T02:42:26.634Z,100482.63
2023-06-11T02:43:29.894Z,100478.25
2023-06-11T02:44:33.464Z,100486.41
2023-06-11T02:45:37.497Z,100475.53
2023-06-11T02:46:41.617Z,100476.16
2023-06-11T02:47:45.062Z,100473.47
2023-06-11T02:48:48.541Z,100477.22
2023-06-11T02:49:52.166Z,100477.22
2023-06-11T02:50:55.987Z,100477.63
2023-06-11T02:51:59.705Z,100476.19
2023-06-11T02:53:03.371Z,100473.66
2023-06-11T02:54:06.737Z,100473.06
2023-06-11T02:55:10.601Z,100479.09
2023-06-11T02:56:14.480Z,100473.06
2023-06-11T02:57:18.012Z,100476.38
2023-06-11T02:58:21.698Z,100480.13
2023-06-11T02:59:24.721Z,100481.81
2023-06-11T03:00:28.267Z,100479.72
2023-06-11T03:01:31.636Z,100475.97
2023-06-11T03:02:34.960Z,100475.97
2023-06-11T03:03:38.167Z,100478.03
2023-06-11T03:04:41.671Z,100473.03
2023-06-11T03:05:45.144Z,100473.88
2023-06-11T03:06:48.922Z,100472.63
2023-06-11T03:07:52.594Z,100466.38
2023-06-11T03:08:56.192Z,100470.97
2023-06-11T03:09:59.592Z,100464.94
2023-06-11T03:11:02.758Z,100456.78
2023-06-11T03:12:14.665Z,100467.22
2023-06-11T03:13:18.085Z,100473.47
2023-06-11T03:14:26.567Z,100469.91
2023-06-11T03:15:30.393Z,100469.91
2023-06-11T03:16:35.116Z,100463.66
2023-06-11T03:17:38.716Z,100467.22
2023-06-11T03:18:43.347Z,100470.13
2023-06-11T03:19:46.459Z,100457.84
2023-06-11T03:20:50.278Z,100463.47
2023-06-11T03:21:54.122Z,100458.03
2023-06-11T03:22:57.187Z,100461.59
2023-06-11T03:24:00.789Z,100466.81
2023-06-11T03:25:04.526Z,100463.47
2023-06-11T03:26:11.917Z,100466.63
2023-06-11T03:27:19.837Z,100463.28
2023-06-11T03:28:23.497Z,100467.03
2023-06-11T03:29:27.258Z,100472.47
2023-06-11T03:30:33.471Z,100472.69
2023-06-11T03:31:40.664Z,100465.16
2023-06-11T03:32:44.422Z,100472.69
2023-06-11T03:33:49.166Z,100471.84
2023-06-11T03:34:54.623Z,100479.34
2023-06-11T03:36:00.241Z,100473.09
2023-06-11T03:37:03.951Z,100476.00
2023-06-11T03:38:07.587Z,100477.09
2023-06-11T03:39:11.797Z,100476.84
2023-06-11T03:40:15.419Z,100471.63
2023-06-11T03:41:18.682Z,100465.78
2023-06-11T03:42:21.967Z,100462.69
2023-06-11T03:43:25.783Z,100468.09
2023-06-11T03:44:29.146Z,100469.13
2023-06-11T03:45:32.745Z,100464.31
2023-06-11T03:46:36.178Z,100472.88
2023-06-11T03:47:39.606Z,100471.41
2023-06-11T03:48:42.687Z,100474.13
2023-06-11T03:49:46.289Z,100468.94
2023-06-11T03:50:50.124Z,100466.00
2023-06-11T03:51:53.596Z,100468.94
2023-06-11T03:52:56.936Z,100466.44
2023-06-11T03:54:01.196Z,100465.59
2023-06-11T03:55:04.631Z,100466.63
2023-06-11T03:56:07.941Z,100466.44
2023-06-11T03:57:12.259Z,100465.16
2023-06-11T03:58:15.950Z,100469.78
2023-06-11T03:59:19.476Z,100457.47
2023-06-11T04:00:23.321Z,100463.09
2023-06-11T04:01:26.875Z,100461.22
2023-06-11T04:02:31.186Z,100464.97
2023-06-11T04:03:35.107Z,100459.97
2023-06-11T04:04:39.034Z,100460.19
2023-06-11T04:05:43.673Z,100452.28
2023-06-11T04:06:47.661Z,100459.78
2023-06-11T04:07:52.474Z,100450.81
2023-06-11T04:08:56.665Z,100452.28
2023-06-11T04:10:00.568Z,100449.34
2023-06-11T04:11:04.267Z,100447.66
2023-06-11T04:12:08.237Z,100448.69
2023-06-11T04:13:12.229Z,100447.25
2023-06-11T04:14:16.446Z,100448.94
2023-06-11T04:15:19.837Z,100449.94
2023-06-11T04:16:24.028Z,100458.91
2023-06-11T04:17:27.985Z,100458.31
2023-06-11T04:18:31.377Z,100455.16
2023-06-11T04:19:35.273Z,100462.06
2023-06-11T04:20:39.333Z,100458.69
2023-06-11T04:21:43.255Z,100453.91
2023-06-11T04:22:46.870Z,100458.50
2023-06-11T04:23:50.221Z,100462.88
2023-06-11T04:24:55.304Z,100458.91
2023-06-11T04:25:59.732Z,100458.91
2023-06-11T04:27:08.896Z,100460.38
2023-06-11T04:28:12.630Z,100454.13
2023-06-11T04:29:17.864Z,100460.16
2023-06-11T04:30:22.529Z,100463.91
2023-06-11T04:31:29.498Z,100466.41
2023-06-11T04:32:36.872Z,100468.88
2023-06-11T04:33:42.485Z,100468.06
2023-06-11T04:34:50.298Z,100464.94
2023-06-11T04:35:54.764Z,100468.28
2023-06-11T04:36:59.184Z,100468.28
2023-06-11T04:38:05.180Z,100460.78
2023-06-11T04:39:09.746Z,100464.72
2023-06-11T04:40:15.150Z,100454.53
2023-06-11T04:41:19.636Z,100461.19
2023-06-11T04:42:28.135Z,100448.91
2023-06-11T04:43:35.239Z,100449.53
2023-06-11T04:44:39.152Z,100449.72
2023-06-11T04:45:44.655Z,100452.66
2023-06-11T04:46:49.501Z,100450.97
2023-06-11T04:47:53.720Z,100453.63
2023-06-11T04:49:01.359Z,100449.25
2023-06-11T04:50:06.850Z,100454.69
2023-06-11T04:51:13.791Z,100455.13
2023-06-11T04:52:20.592Z,100464.31
2023-06-11T04:53:24.519Z,100455.56
2023-06-11T04:54:30.182Z,100461.38
2023-06-11T04:55:40.534Z,100460.56
2023-06-11T04:56:43.882Z,100458.25
2023-06-11T04:57:48.475Z,100462.44
2023-06-11T04:58:52.421Z,100452.66
2023-06-11T04:59:55.657Z,100450.97
2023-06-11T05:00:59.516Z,100453.50
2023-06-11T05:02:03.589Z,100450.34
2023-06-11T05:03:09.102Z,100455.56
2023-06-11T05:04:16.045Z,100458.72
2023-06-11T05:05:19.746Z,100452.03
2023-06-11T05:06:23.084Z,100454.75
2023-06-11T05:07:27.352Z,100452.69
2023-06-11T05:08:30.932Z,100455.38
2023-06-11T05:09:37.247Z,100449.31
2023-06-11T05:10:40.986Z,100445.34
2023-06-11T05:11:45.415Z,100443.50
2023-06-11T05:12:52.143Z,100436.00
2023-06-11T05:13:57.153Z,100437.22
2023-06-11T05:15:01.191Z,100438.03
2023-06-11T05:16:07.827Z,100432.84
2023-06-11T05:17:12.435Z,100443.47
2023-06-11T05:18:16.631Z,100444.75
2023-06-11T05:19:20.048Z,100447.22
2023-06-11T05:20:28.068Z,100444.72
2023-06-11T05:21:31.498Z,100442.22
2023-06-11T05:22:35.011Z,100444.56
2023-06-11T05:23:41.145Z,100448.91
2023-06-11T05:24:49.549Z,100447.25
2023-06-11T05:25:52.901Z,100443.31
2023-06-11T05:26:58.431Z,100442.47
2023-06-11T05:28:08.048Z,100433.91
2023-06-11T05:29:12.380Z,100439.53
2023-06-11T05:30:17.600Z,100438.91
2023-06-11T05:31:23.195Z,100437.69
2023-06-11T05:32:27.593Z,100445.38
2023-06-11T05:33:32.387Z,100443.31
2023-06-11T05:34:36.392Z,100443.91
2023-06-11T05:35:44.635Z,100446.22
2023-06-11T05:36:50.346Z,100446.41
2023-06-11T05:37:58.047Z,100443.69
2023-06-11T05:39:02.592Z,100450.75
2023-06-11T05:40:08.111Z,100454.28
2023-06-11T05:41:11.989Z,100447.56
2023-06-11T05:42:15.704Z,100454.47
2023-06-11T05:43:21.095Z,100448.38
2023-06-11T05:44:24.641Z,100453.97
2023-06-11T05:45:28.399Z,100458.47
2023-06-11T05:46:32.579Z,100447.13
2023-06-11T05:47:37.836Z,100455.50
2023-06-11T05:48:42.830Z,100449.53
2023-06-11T05:49:47.206Z,100458.63
2023-06-11T05:50:50.987Z,100443.72
2023-06-11T05:51:54.609Z,100447.38
2023-06-11T05:52:58.291Z,100450.13
2023-06-11T05:54:02.003Z,100451.13
2023-06-11T05:55:06.718Z,100447.66
2023-06-11T05:56:10.873Z,100439.84
2023-06-11T05:57:26.525Z,100445.69
2023-06-11T05:58:36.358Z,100444.84
2023-06-11T05:59:41.174Z,100451.47
2023-06-11T06:00:44.651Z,100448.50
2023-06-11T06:01:47.966Z,100444.84
2023-06-11T06:02:54.802Z,100448.56
2023-06-11T06:04:04.045Z,100449.56
2023-06-11T06:05:08.906Z,100441.66
2023-06-11T06:06:12.534Z,100448.88
2023-06-11T06:07:16.543Z,100443.13
2023-06-11T06:08:20.914Z,100447.09
2023-06-11T06:09:24.377Z,100438.94
2023-06-11T06:10:28.720Z,100450.00
2023-06-11T06:11:32.816Z,100448.09
2023-06-11T06:12:36.335Z,100445.63
2023-06-11T06:13:40.329Z,100447.28
2023-06-11T06:14:44.202Z,100442.28
2023-06-11T06:15:47.385Z,100435.66
2023-06-11T06:16:50.499Z,100440.47
2023-06-11T06:17:59.014Z,100445.25
2023-06-11T06:19:12.264Z,100450.16
2023-06-11T06:20:15.878Z,100445.38
2023-06-11T06:21:19.576Z,100452.28
2023-06-11T06:22:22.788Z,100448.84
2023-06-11T06:23:26.481Z,100447.03
2023-06-11T06:24:37.850Z,100441.09
2023-06-11T06:25:43.319Z,100454.38
2023-06-11T06:26:53.429Z,100453.69
2023-06-11T06:27:56.599Z,100461.56
2023-06-11T06:29:00.720Z,100459.81
2023-06-11T06:30:05.692Z,100456.78
2023-06-11T06:31:09.517Z,100462.31
2023-06-11T06:32:14.340Z,100451.41
2023-06-11T06:33:18.164Z,100455.03
2023-06-11T06:34:21.866Z,100453.25
2023-06-11T06:35:25.412Z,100453.97
2023-06-11T06:36:29.015Z,100458.03
2023-06-11T06:37:33.262Z,100445.44
2023-06-11T06:38:37.827Z,100453.38
2023-06-11T06:39:42.827Z,100459.09
2023-06-11T06:40:46.435Z,100455.78
2023-06-11T06:41:49.483Z,100455.19
2023-06-11T06:42:57.251Z,100459.22
2023-06-11T06:44:06.605Z,100463.28
2023-06-11T06:45:12.144Z,100463.84
2023-06-11T06:46:16.260Z,100472.28
2023-06-11T06:47:21.407Z,100467.03
2023-06-11T06:48:25.293Z,100467.53
2023-06-11T06:49:31.332Z,100468.59
2023-06-11T06:50:34.959Z,100465.84
2023-06-11T06:51:39.477Z,100469.16
2023-06-11T06:52:43.344Z,100465.38
2023-06-11T06:53:48.494Z,100474.19
2023-06-11T06:54:53.070Z,100469.91
2023-06-11T06:55:56.820Z,100471.06
2023-06-11T06:57:00.682Z,100464.09
2023-06-11T06:58:04.297Z,100466.31
2023-06-11T06:59:08.729Z,100463.09
2023-06-11T07:00:16.794Z,100467.03
2023-06-11T07:01:21.093Z,100478.53
2023-06-11T07:02:25.118Z,100470.94
2023-06-11T07:03:29.604Z,100479.22
2023-06-11T07:04:33.300Z,100473.88
2023-06-11T07:05:36.494Z,100472.06
2023-06-11T07:06:40.632Z,100480.59
2023-06-11T07:07:44.989Z,100476.91
2023-06-11T07:08:48.800Z,100476.44
2023-06-11T07:09:52.712Z,100481.41
2023-06-11T07:10:56.860Z,100479.97
2023-06-11T07:12:14.798Z,100487.53
2023-06-11T07:13:18.464Z,100480.47
2023-06-11T07:14:22.381Z,100473.44
2023-06-11T07:15:25.875Z,100476.09
2023-06-11T07:16:29.511Z,100469.13
2023-06-11T07:17:37.041Z,100481.34
2023-06-11T07:18:41.119Z,100473.78
2023-06-11T07:19:44.320Z,100481.63
2023-06-11T07:20:48.422Z,100486.66
2023-06-11T07:21:52.066Z,100483.75
2023-06-11T07:22:55.830Z,100485.72
2023-06-11T07:24:00.589Z,100487.47
2023-06-11T07:25:04.155Z,100485.88
2023-06-11T07:26:07.385Z,100492.53
2023-06-11T07:27:11.998Z,100489.88
2023-06-11T07:28:15.929Z,100494.34
2023-06-11T07:29:21.755Z,100497.22
2023-06-11T07:30:26.462Z,100500.63
2023-06-11T07:31:29.736Z,100504.97
2023-06-11T07:32:33.411Z,100501.22
2023-06-11T07:33:37.399Z,100504.06
2023-06-11T07:34:42.148Z,100503.63
2023-06-11T07:35:48.881Z,100508.09
2023-06-11T07:36:52.604Z,100511.47
2023-06-11T07:37:57.742Z,100503.81
2023-06-11T07:39:01.779Z,100505.44
2023-06-11T07:40:07.626Z,100508.09
2023-06-11T07:41:12.005Z,100512.09
2023-06-11T07:42:15.252Z,100506.16
2023-06-11T07:43:18.874Z,100508.25
2023-06-11T07:44:22.202Z,100509.78
2023-06-11T07:45:25.306Z,100508.28
2023-06-11T07:46:28.590Z,100501.31
2023-06-11T07:47:32.370Z,100501.25
2023-06-11T07:48:36.161Z,100511.06
2023-06-11T07:49:39.882Z,100510.22
2023-06-11T07:50:43.794Z,100514.69
2023-06-11T07:51:50.420Z,100503.50
2023-06-11T07:52:55.318Z,100506.63
2023-06-11T07:54:02.329Z,100514.50
2023-06-11T07:55:05.670Z,100514.84
2023-06-11T07:56:09.176Z,100507.91
2023-06-11T07:57:14.900Z,100509.94
2023-06-11T07:58:19.979Z,100512.75
2023-06-11T07:59:23.077Z,100512.56
2023-06-11T08:00:26.641Z,100514.03
2023-06-11T08:01:29.864Z,100514.22
2023-06-11T08:02:33.509Z,100516.25
2023-06-11T08:03:37.196Z,100510.06
2023-06-11T08:04:40.205Z,100524.16
2023-06-11T08:05:43.557Z,100529.72
2023-06-11T08:06:46.882Z,100522.66
2023-06-11T08:07:50.692Z,100532.34
2023-06-11T08:08:54.550Z,100529.25
2023-06-11T08:09:58.324Z,100528.03
2023-06-11T08:11:01.765Z,100530.66
2023-06-11T08:12:08.820Z,100535.31
2023-06-11T08:13:12.542Z,100532.56
2023-06-11T08:14:15.661Z,100536.13
2023-06-11T08:15:19.444Z,100531.81
2023-06-11T08:16:22.638Z,100538.31
2023-06-11T08:17:25.816Z,100530.44
2023-06-11T08:18:29.406Z,100531.06
2023-06-11T08:19:33.182Z,100535.84
2023-06-11T08:20:36.757Z,100540.22
2023-06-11T08:21:40.218Z,100537.13
2023-06-11T08:22:43.924Z,100533.16
2023-06-11T08:23:47.665Z,100536.09
2023-06-11T08:24:51.173Z,100536.34
2023-06-11T08:25:56.222Z,100537.31
2023-06-11T08:27:00.085Z,100534.44
2023-06-11T08:28:03.913Z,100533.06
2023-06-11T08:29:07.752Z,100543.25
2023-06-11T08:30:11.497Z,100544.34
2023-06-11T08:31:15.248Z,100541.69
2023-06-11T08:32:18.276Z,100544.28
2023-06-11T08:33:22.039Z,100550.09
2023-06-11T08:34:25.714Z,100552.44
2023-06-11T08:35:29.715Z,100544.53
2023-06-11T08:36:33.808Z,100534.09
2023-06-11T08:37:37.111Z,100538.13
2023-06-11T08:38:41.039Z,100546.53
2023-06-11T08:39:44.538Z,100544.25
2023-06-11T08:40:48.451Z,100538.69
2023-06-11T08:41:52.173Z,100548.63
2023-06-11T08:42:55.618Z,100537.59
2023-06-11T08:43:59.448Z,100544.00
2023-06-11T08:45:03.671Z,100541.56
2023-06-11T08:46:07.434Z,100541.53
2023-06-11T08:47:13.604Z,100549.56
2023-06-11T08:48:20.835Z,100536.81
2023-06-11T08:49:25.088Z,100544.44
2023-06-11T08:50:28.681Z,100542.31
2023-06-11T08:51:37.837Z,100542.31
2023-06-11T08:52:41.507Z,100547.81
2023-06-11T08:53:44.868Z,100547.22
2023-06-11T08:54:48.570Z,100546.94
2023-06-11T08:55:52.232Z,100552.16
2023-06-11T08:56:55.433Z,100546.78
2023-06-11T08:57:58.971Z,100542.38
2023-06-11T08:59:02.641Z,100550.84
2023-06-11T09:00:09.541Z,100549.09
2023-06-11T09:01:13.663Z,100548.19
2023-06-11T09:02:16.895Z,100543.53
2023-06-11T09:03:20.416Z,100550.03
2023-06-11T09:04:24.365Z,100551.69
2023-06-11T09:05:28.041Z,100558.25
2023-06-11T09:06:31.995Z,100552.19
2023-06-11T09:07:37.406Z,100548.28
2023-06-11T09:08:41.212Z,100543.03
2023-06-11T09:09:44.424Z,100540.69
2023-06-11T09:10:53.449Z,100543.75
2023-06-11T09:11:56.455Z,100548.63
2023-06-11T09:13:01.087Z,100539.75
2023-06-11T09:14:04.691Z,100541.84
2023-06-11T09:15:08.213Z,100541.53
2023-06-11T09:16:11.841Z,100539.63
2023-06-11T09:17:17.813Z,100539.13
2023-06-11T09:18:22.008Z,100538.00
2023-06-11T09:19:25.487Z,100539.66
2023-06-11T09:20:29.070Z,100534.28
2023-06-11T09:21:32.261Z,100548.94
2023-06-11T09:22:37.184Z,100541.47
2023-06-11T09:23:40.833Z,100541.94
2023-06-11T09:24:44.225Z,100532.97
2023-06-11T09:25:48.005Z,100536.03
2023-06-11T09:26:54.064Z,100528.28
2023-06-11T09:27:57.402Z,100528.75
2023-06-11T09:29:04.332Z,100536.41
2023-06-11T09:30:10.096Z,100532.88
2023-06-11T09:31:14.260Z,100525.59
2023-06-11T09:33:28.839Z,100535.88
2023-06-11T09:34:32.664Z,100531.53
2023-06-11T09:35:35.981Z,100539.97
2023-06-11T09:36:39.553Z,100538.63
2023-06-11T09:38:03.826Z,100541.81
2023-06-11T09:39:07.479Z,100541.44
2023-06-11T09:40:12.742Z,100539.59
2023-06-11T09:41:19.511Z,100539.94
2023-06-11T09:42:25.894Z,100546.38
2023-06-11T09:43:29.392Z,100544.28
2023-06-11T09:44:35.828Z,100538.97
2023-06-11T09:45:39.503Z,100542.72
2023-06-11T09:46:43.720Z,100539.34
2023-06-11T09:47:48.405Z,100534.47
2023-06-11T09:48:52.334Z,100538.69
2023-06-11T09:49:56.074Z,100535.50
2023-06-11T09:50:59.742Z,100535.75
2023-06-11T09:52:03.121Z,100533.63
2023-06-11T09:53:07.888Z,100538.56
2023-06-11T09:54:16.926Z,100541.34
2023-06-11T09:55:20.391Z,100546.69
2023-06-11T09:56:23.927Z,100548.00
2023-06-11T09:57:27.727Z,100552.56
2023-06-11T09:58:31.151Z,100544.97
2023-06-11T09:59:34.475Z,100551.69
2023-06-11T10:00:38.000Z,100551.34
2023-06-11T10:01:42.960Z,100552.63
2023-06-11T10:02:46.527Z,100551.91
2023-06-11T10:03:49.778Z,100546.97
2023-06-11T10:04:52.947Z,100544.56
2023-06-11T10:05:56.717Z,100543.88
2023-06-11T10:07:00.231Z,100554.72
2023-06-11T10:08:07.237Z,100546.59
2023-06-11T10:09:12.801Z,100544.81
2023-06-11T10:10:21.348Z,100550.22
2023-06-11T10:11:25.290Z,100555.28
2023-06-11T10:12:34.330Z,100558.75
2023-06-11T10:13:39.082Z,100554.78
2023-06-11T10:14:42.084Z,100557.03
2023-06-11T10:15:45.365Z,100549.72
2023-06-11T10:16:52.555Z,100555.84
2023-06-11T10:17:56.352Z,100553.25
2023-06-11T10:19:09.705Z,100552.72
2023-06-11T10:20:33.506Z,100553.47
2023-06-11T10:21:51.117Z,100550.66
2023-06-11T10:23:07.375Z,100551.72
2023-06-11T10:24:28.389Z,100549.09
2023-06-11T10:25:41.437Z,100550.97
2023-06-11T10:26:45.631Z,100557.91
2023-06-11T10:27:48.648Z,100555.53
2023-06-11T10:28:53.022Z,100553.03
2023-06-11T10:29:56.918Z,100558.09
2023-06-11T10:31:00.125Z,100555.91
2023-06-11T10:32:03.944Z,100552.69
2023-06-11T10:33:07.779Z,100556.72
2023-06-11T10:34:15.451Z,100544.88
2023-06-11T10:35:25.964Z,100552.38
2023-06-11T10:36:37.366Z,100552.44
2023-06-11T10:37:42.797Z,100546.91
2023-06-11T10:38:46.013Z,100556.53
2023-06-11T10:39:52.677Z,100549.59
2023-06-11T10:41:03.345Z,100544.97
2023-06-11T10:42:07.484Z,100547.75
2023-06-11T10:43:22.070Z,100543.50
2023-06-11T10:44:28.464Z,100547.75
2023-06-11T10:45:38.536Z,100544.97
2023-06-11T10:46:53.751Z,100553.25
2023-06-11T10:48:01.541Z,100553.69
2023-06-11T10:49:13.799Z,100551.41
2023-06-11T10:50:27.051Z,100549.19
2023-06-11T10:51:40.472Z,100549.28
2023-06-11T10:52:57.553Z,100544.97
2023-06-11T10:54:00.963Z,100549.78
2023-06-11T10:55:04.559Z,100538.72
2023-06-11T10:56:16.675Z,100542.31
2023-06-11T10:57:21.509Z,100547.19
2023-06-11T10:58:25.652Z,100547.28
2023-06-11T10:59:29.269Z,100539.66
2023-06-11T11:00:35.808Z,100545.75
2023-06-11T11:01:39.132Z,100546.03
2023-06-11T11:02:42.415Z,100551.47
2023-06-11T11:03:45.852Z,100545.25
2023-06-11T11:04:52.622Z,100545.53
2023-06-11T11:05:55.644Z,100549.47
2023-06-11T11:07:10.495Z,100548.03
2023-06-11T11:08:16.815Z,100553.94
2023-06-11T11:09:23.701Z,100548.84
2023-06-11T11:10:27.731Z,100548.47
2023-06-11T11:11:31.481Z,100550.38
2023-06-11T11:12:40.128Z,100549.91
2023-06-11T11:13:43.598Z,100547.25
2023-06-11T11:14:46.973Z,100551.25
2023-06-11T11:15:50.845Z,100557.13
2023-06-11T11:16:54.357Z,100548.69
2023-06-11T11:17:57.710Z,100550.88
2023-06-11T11:19:01.218Z,100553.56
2023-06-11T11:20:12.284Z,100549.91
2023-06-11T11:21:16.660Z,100556.16
2023-06-11T11:22:20.142Z,100554.03
2023-06-11T11:23:26.096Z,100550.13
2023-06-11T11:24:29.300Z,100542.34
2023-06-11T11:25:34.426Z,100542.97
2023-06-11T11:26:44.296Z,100542.97
2023-06-11T11:27:49.170Z,100547.63
2023-06-11T11:28:53.337Z,100538.94
2023-06-11T11:30:03.238Z,100543.31
2023-06-11T11:31:08.657Z,100538.22
2023-06-11T11:32:12.421Z,100537.75
2023-06-11T11:33:16.426Z,100537.84
2023-06-11T11:34:21.604Z,100537.59
2023-06-11T11:35:27.326Z,100533.84
2023-06-11T11:36:31.198Z,100534.47
2023-06-11T11:37:35.446Z,100529.63
2023-06-11T11:38:39.207Z,100530.63
2023-06-11T11:39:42.795Z,100532.44
2023-06-11T11:40:46.266Z,100531.44
2023-06-11T11:41:52.859Z,100530.59
2023-06-11T11:43:00.159Z,100536.84
2023-06-11T11:44:03.768Z,100531.94
2023-06-11T11:45:08.265Z,100530.84
2023-06-11T11:46:26.306Z,100532.25
2023-06-11T11:47:30.052Z,100529.13
2023-06-11T11:48:34.659Z,100532.56
2023-06-11T11:49:37.848Z,100535.28
2023-06-11T11:50:42.177Z,100532.28
2023-06-11T11:51:53.119Z,100539.59
2023-06-11T11:53:07.305Z,100535.28
2023-06-11T11:54:15.165Z,100536.28
2023-06-11T11:55:18.830Z,100532.81
2023-06-11T11:56:22.008Z,100529.38
2023-06-11T11:57:27.969Z,100530.06
2023-06-11T11:58:38.298Z,100523.47
2023-06-11T11:59:41.927Z,100528.28
2023-06-11T12:01:03.869Z,100519.44
2023-06-11T12:02:08.474Z,100528.41
2023-06-11T12:03:12.652Z,100531.34
2023-06-11T12:04:16.127Z,100536.31
2023-06-11T12:05:19.835Z,100531.84
2023-06-11T12:06:26.765Z,100540.84
2023-06-11T12:07:30.057Z,100536.75
2023-06-11T12:08:33.717Z,100535.69
2023-06-11T12:09:40.112Z,100534.94
2023-06-11T12:10:43.589Z,100541.72
2023-06-11T12:12:03.756Z,100547.19
2023-06-11T12:13:08.782Z,100539.25
2023-06-11T12:14:12.387Z,100537.00
2023-06-11T12:15:15.860Z,100533.22
2023-06-11T12:16:19.069Z,100538.19
2023-06-11T12:17:22.247Z,100532.72
2023-06-11T12:18:25.858Z,100530.16
2023-06-11T12:19:31.871Z,100535.41
2023-06-11T12:20:34.849Z,100538.19
2023-06-11T12:21:38.073Z,100539.06
2023-06-11T12:22:41.871Z,100535.84
2023-06-11T12:23:45.710Z,100533.75
2023-06-11T12:24:49.698Z,100536.78
2023-06-11T12:25:53.190Z,100539.22